createdAt,value
2022-12-19T00:01:38.085Z,67.95
2022-12-19T00:04:08.226Z,64.93
2022-12-19T00:06:36.325Z,66.90
2022-12-19T00:09:03.367Z,63.15
2022-12-19T00:11:30.517Z,69.88
2022-12-19T00:13:57.948Z,65.63
2022-12-19T00:16:25.812Z,70.82
2022-12-19T00:18:55.452Z,73.35
2022-12-19T00:21:23.539Z,72.63
2022-12-19T00:23:51.049Z,75.25
2022-12-19T00:26:18.074Z,66.20
2022-12-19T00:28:46.102Z,68.10
2022-12-19T00:31:13.259Z,69.43
2022-12-19T00:33:43.315Z,68.93
2022-12-19T00:38:37.829Z,63.38
2022-12-19T00:41:14.731Z,67.80
2022-12-19T00:43:41.785Z,69.68
2022-12-19T00:46:09.691Z,72.15
2022-12-19T00:48:36.915Z,67.63
2022-12-19T00:51:07.525Z,67.57
2022-12-19T00:53:34.665Z,69.78
2022-12-19T00:56:02.808Z,78.10
2022-12-19T00:58:33.220Z,69.95
2022-12-19T01:01:28.752Z,67.47
2022-12-19T01:04:27.292Z,65.63
2022-12-19T01:06:42.972Z,72.75
2022-12-19T01:09:11.286Z,63.35
2022-12-19T01:11:56.866Z,63.03
2022-12-19T01:14:24.014Z,70.13
2022-12-19T01:16:51.587Z,75.05
2022-12-19T01:19:18.634Z,66.85
2022-12-19T01:21:45.701Z,69.38
2022-12-19T01:24:12.925Z,69.50
2022-12-19T01:26:41.790Z,65.53
2022-12-19T01:29:08.814Z,63.20
2022-12-19T01:31:36.113Z,69.28
2022-12-19T01:34:03.213Z,67.40
2022-12-19T01:36:30.326Z,68.82
2022-12-19T01:38:57.759Z,64.85
2022-12-19T01:41:24.892Z,68.40
2022-12-19T01:43:57.046Z,70.25
2022-12-19T01:46:44.599Z,68.63
2022-12-19T01:49:14.897Z,70.60
2022-12-19T01:51:44.369Z,72.47
2022-12-19T01:54:12.473Z,70.50
2022-12-19T01:56:43.500Z,74.00
2022-12-19T01:59:11.596Z,70.30
2022-12-19T02:01:51.088Z,75.93
2022-12-19T02:04:19.019Z,70.15
2022-12-19T02:06:46.114Z,79.93
2022-12-19T02:09:13.120Z,74.53
2022-12-19T02:11:40.136Z,74.38
2022-12-19T02:14:07.236Z,82.38
2022-12-19T02:16:42.053Z,73.97
2022-12-19T02:19:13.146Z,79.60
2022-12-19T02:21:54.853Z,77.90
2022-12-19T02:24:37.440Z,76.55
2022-12-19T02:27:21.168Z,80.78
2022-12-19T02:29:54.607Z,78.82
2022-12-19T02:32:22.195Z,79.88
2022-12-19T02:35:21.832Z,80.05
2022-12-19T02:37:50.275Z,76.90
2022-12-19T02:40:22.291Z,77.80
2022-12-19T02:42:50.869Z,74.80
2022-12-19T02:45:23.369Z,84.18
2022-12-19T02:47:56.057Z,80.78
2022-12-19T02:50:23.079Z,74.50
2022-12-19T02:52:50.250Z,76.18
2022-12-19T02:55:18.743Z,79.95
2022-12-19T02:57:54.706Z,72.00
2022-12-19T03:00:22.341Z,73.20
2022-12-19T03:03:01.109Z,83.68
2022-12-19T03:05:50.272Z,77.60
2022-12-19T03:08:17.376Z,75.40
2022-12-19T03:10:45.270Z,74.75
2022-12-19T03:13:13.636Z,78.70
2022-12-19T03:15:41.020Z,80.55
2022-12-19T03:18:08.068Z,78.85
2022-12-19T03:20:45.983Z,81.90
2022-12-19T03:23:13.024Z,79.25
2022-12-19T03:25:40.116Z,79.78
2022-12-19T03:28:08.047Z,75.22
2022-12-19T03:30:35.172Z,82.00
2022-12-19T03:33:02.507Z,73.35
2022-12-19T03:35:29.943Z,79.30
2022-12-19T03:38:01.385Z,80.43
2022-12-19T03:40:28.481Z,76.20
2022-12-19T03:43:11.383Z,81.78
2022-12-19T03:45:44.685Z,80.47
2022-12-19T03:48:13.795Z,77.28
2022-12-19T03:50:54.748Z,76.57
2022-12-19T03:53:54.025Z,74.32
2022-12-19T03:56:26.939Z,81.15
2022-12-19T03:58:56.317Z,84.60
2022-12-19T04:01:23.488Z,80.43
2022-12-19T04:03:51.666Z,83.60
2022-12-19T04:06:18.835Z,83.05
2022-12-19T04:08:45.928Z,82.97
2022-12-19T04:11:15.253Z,89.13
2022-12-19T04:13:43.345Z,80.75
2022-12-19T04:16:10.485Z,80.47
2022-12-19T04:18:37.976Z,80.47
2022-12-19T04:21:07.659Z,78.47
2022-12-19T04:23:42.215Z,84.03
2022-12-19T04:26:09.237Z,79.22
2022-12-19T04:28:38.627Z,82.97
2022-12-19T04:31:05.811Z,85.00
2022-12-19T04:33:32.889Z,80.43
2022-12-19T04:36:00.497Z,75.88
2022-12-19T04:38:27.622Z,78.55
2022-12-19T04:40:54.728Z,81.55
2022-12-19T04:43:21.789Z,79.10
2022-12-19T04:45:51.672Z,90.40
2022-12-19T04:48:22.604Z,80.80
2022-12-19T04:50:49.638Z,87.00
2022-12-19T04:53:16.745Z,78.97
2022-12-19T04:55:44.159Z,85.07
2022-12-19T04:58:15.286Z,80.22
2022-12-19T05:00:44.798Z,76.75
2022-12-19T05:03:11.866Z,77.70
2022-12-19T05:05:38.931Z,76.78
2022-12-19T05:08:06.086Z,78.60
2022-12-19T05:10:33.213Z,76.13
2022-12-19T05:13:00.286Z,74.40
2022-12-19T05:15:27.324Z,81.60
2022-12-19T05:17:54.384Z,79.05
2022-12-19T05:20:21.447Z,85.57
2022-12-19T05:22:48.481Z,84.80
2022-12-19T05:25:15.584Z,77.10
2022-12-19T05:27:42.607Z,81.30
2022-12-19T05:30:09.891Z,83.57
2022-12-19T05:32:36.918Z,81.82
2022-12-19T05:35:03.962Z,89.15
2022-12-19T05:37:30.989Z,87.05
2022-12-19T05:39:58.015Z,87.15
2022-12-19T05:42:26.334Z,84.10
2022-12-19T05:44:53.326Z,92.82
2022-12-19T05:47:23.505Z,82.65
2022-12-19T05:49:50.548Z,80.13
2022-12-19T05:52:17.580Z,84.18
2022-12-19T05:54:44.586Z,86.22
2022-12-19T05:57:11.569Z,86.95
2022-12-19T05:59:38.660Z,82.50
2022-12-19T06:02:05.740Z,90.25
2022-12-19T06:04:32.903Z,88.82
2022-12-19T06:06:59.993Z,86.43
2022-12-19T06:09:27.078Z,89.18
2022-12-19T06:11:54.144Z,91.32
2022-12-19T06:14:21.399Z,83.63
2022-12-19T06:16:48.447Z,85.50
2022-12-19T06:19:15.510Z,83.63
2022-12-19T06:21:48.264Z,83.40
2022-12-19T06:24:15.649Z,83.60
2022-12-19T06:26:42.748Z,84.10
2022-12-19T06:29:09.840Z,88.60
2022-12-19T06:31:36.903Z,84.22
2022-12-19T06:34:03.942Z,81.30
2022-12-19T06:36:31.189Z,83.38
2022-12-19T06:38:58.351Z,83.60
2022-12-19T06:41:43.853Z,74.80
2022-12-19T06:44:12.211Z,85.75
2022-12-19T06:46:39.872Z,87.50
2022-12-19T06:49:07.340Z,88.07
2022-12-19T06:51:34.356Z,81.00
2022-12-19T06:54:01.379Z,84.30
2022-12-19T06:56:28.350Z,80.60
2022-12-19T06:58:55.426Z,87.43
2022-12-19T07:01:25.926Z,79.07
2022-12-19T07:06:19.948Z,85.60
2022-12-19T07:08:46.959Z,82.85
2022-12-19T07:11:13.994Z,83.35
2022-12-19T07:13:40.975Z,79.78
2022-12-19T07:16:08.525Z,88.07
2022-12-19T07:18:36.699Z,91.72
2022-12-19T07:21:03.797Z,85.57
2022-12-19T07:23:31.042Z,89.40
2022-12-19T07:25:58.385Z,82.30
2022-12-19T07:28:25.450Z,87.00
2022-12-19T07:30:52.460Z,88.78
2022-12-19T07:33:21.616Z,92.22
2022-12-19T07:35:49.251Z,86.10
2022-12-19T07:38:16.267Z,87.85
2022-12-19T07:40:43.281Z,86.75
2022-12-19T07:43:10.331Z,86.07
2022-12-19T07:45:37.824Z,89.60
2022-12-19T07:48:05.190Z,87.05
2022-12-19T07:50:32.246Z,85.32
2022-12-19T07:52:59.373Z,91.88
2022-12-19T07:55:26.681Z,86.43
2022-12-19T07:57:53.846Z,88.43
2022-12-19T08:00:21.434Z,81.05
2022-12-19T08:02:48.587Z,91.13
2022-12-19T08:05:15.735Z,94.88
2022-12-19T08:07:42.754Z,81.45
2022-12-19T08:10:11.519Z,82.88
2022-12-19T08:12:38.718Z,86.53
2022-12-19T08:15:06.168Z,82.85
2022-12-19T08:17:34.959Z,87.35
2022-12-19T08:20:01.970Z,84.47
2022-12-19T08:22:32.212Z,88.22
2022-12-19T08:24:59.261Z,85.97
2022-12-19T08:27:26.493Z,88.78
2022-12-19T08:29:53.501Z,83.55
2022-12-19T08:32:21.679Z,84.68
2022-12-19T08:34:49.774Z,89.35
2022-12-19T08:37:17.068Z,90.28
2022-12-19T08:39:44.124Z,80.72
2022-12-19T08:42:11.171Z,87.40
2022-12-19T08:44:38.305Z,85.25
2022-12-19T08:47:05.462Z,87.40
2022-12-19T08:49:32.488Z,93.75
2022-12-19T08:51:59.488Z,87.60
2022-12-19T08:54:27.083Z,90.47
2022-12-19T08:56:54.143Z,88.07
2022-12-19T08:59:30.563Z,92.13
2022-12-19T09:01:59.514Z,87.50
2022-12-19T09:05:03.676Z,91.30
2022-12-19T09:07:15.736Z,85.53
2022-12-19T09:09:43.224Z,87.57
2022-12-19T09:12:10.318Z,87.72
2022-12-19T09:14:37.349Z,87.43
2022-12-19T09:17:04.993Z,86.70
2022-12-19T09:19:32.385Z,87.47
2022-12-19T09:21:59.484Z,89.43
2022-12-19T09:24:26.611Z,90.18
2022-12-19T09:26:53.658Z,82.25
2022-12-19T09:29:22.094Z,88.40
2022-12-19T09:31:56.427Z,82.85
2022-12-19T09:34:36.987Z,87.57
2022-12-19T09:37:09.274Z,88.93
2022-12-19T09:39:43.623Z,87.07
2022-12-19T09:42:24.105Z,86.07
2022-12-19T09:45:32.506Z,78.85
2022-12-19T09:48:06.721Z,88.22
2022-12-19T09:50:41.786Z,89.72
2022-12-19T09:53:13.172Z,86.82
2022-12-19T09:55:40.399Z,91.38
2022-12-19T09:58:13.084Z,84.57
2022-12-19T10:00:41.427Z,89.15
2022-12-19T10:03:13.540Z,89.85
2022-12-19T10:06:48.644Z,86.15
2022-12-19T10:12:40.846Z,84.78
2022-12-19T10:14:08.648Z,100.05
2022-12-19T10:17:22.605Z,88.68
2022-12-19T10:20:00.582Z,94.75
2022-12-19T10:22:43.062Z,95.60
2022-12-19T10:25:20.262Z,96.50
2022-12-19T10:27:58.399Z,92.82
2022-12-19T10:30:26.063Z,90.05
2022-12-19T10:32:54.828Z,94.00
2022-12-19T10:35:22.106Z,87.28
2022-12-19T10:37:54.544Z,89.28
2022-12-19T10:40:28.416Z,93.25
2022-12-19T10:43:03.315Z,91.35
2022-12-19T10:45:44.253Z,89.95
2022-12-19T10:48:15.572Z,96.60
2022-12-19T10:50:42.580Z,90.53
2022-12-19T10:53:11.308Z,88.57
2022-12-19T10:55:39.759Z,95.28
2022-12-19T10:58:21.117Z,89.22
2022-12-19T11:00:58.879Z,83.85
2022-12-19T11:03:26.077Z,87.45
2022-12-19T11:05:57.794Z,94.68
2022-12-19T11:08:32.639Z,88.93
2022-12-19T11:12:58.631Z,93.85
2022-12-19T11:19:13.451Z,92.28
2022-12-19T11:21:49.148Z,95.25
2022-12-19T11:29:18.576Z,98.90
2022-12-19T11:29:32.068Z,95.55
2022-12-19T11:29:40.720Z,94.20
2022-12-19T11:30:44.493Z,98.50
2022-12-19T11:33:54.458Z,95.32
2022-12-19T11:38:54.391Z,90.68
2022-12-19T11:41:30.105Z,94.68
2022-12-19T11:43:58.771Z,100.65
2022-12-19T11:46:32.489Z,99.32
2022-12-19T11:49:01.278Z,100.88
2022-12-19T11:51:41.703Z,99.70
2022-12-19T11:54:27.662Z,105.07
2022-12-19T11:56:54.680Z,98.00
2022-12-19T11:59:22.772Z,93.22
2022-12-19T12:02:01.738Z,95.65
2022-12-19T12:04:31.867Z,98.15
2022-12-19T12:06:59.321Z,96.25
2022-12-19T12:11:40.026Z,102.15
2022-12-19T12:20:27.341Z,97.40
2022-12-19T12:28:24.724Z,97.00
2022-12-19T12:31:12.378Z,94.30
2022-12-19T12:31:17.978Z,91.30
2022-12-19T12:31:50.996Z,91.47
2022-12-19T12:32:04.541Z,99.90
2022-12-19T12:35:40.782Z,87.15
2022-12-19T12:35:41.441Z,91.68
2022-12-19T12:39:58.484Z,106.37
2022-12-19T12:42:44.140Z,99.00
2022-12-19T12:45:18.358Z,104.45
2022-12-19T12:47:45.378Z,100.45
2022-12-19T12:50:14.740Z,102.40
2022-12-19T12:52:49.130Z,100.78
2022-12-19T12:55:16.981Z,99.75
2022-12-19T12:57:44.006Z,108.97
2022-12-19T13:00:14.900Z,107.30
2022-12-19T13:02:42.229Z,109.07
2022-12-19T13:05:19.427Z,104.65
2022-12-19T13:07:53.309Z,102.70
2022-12-19T13:10:24.516Z,107.32
2022-12-19T13:13:01.417Z,119.22
2022-12-19T13:15:28.451Z,109.13
2022-12-19T13:17:55.479Z,96.85
2022-12-19T13:20:25.663Z,105.47
2022-12-19T13:23:00.819Z,108.60
2022-12-19T13:25:27.846Z,101.70
2022-12-19T13:27:58.249Z,94.97
2022-12-19T13:30:26.106Z,109.13
2022-12-19T13:32:53.097Z,102.57
2022-12-19T13:35:59.826Z,105.13
2022-12-19T13:39:47.805Z,104.85
2022-12-19T13:41:24.919Z,101.38
2022-12-19T13:43:51.914Z,101.85
2022-12-19T13:46:21.412Z,105.32
2022-12-19T13:48:50.193Z,102.03
2022-12-19T13:51:17.177Z,106.55
2022-12-19T13:53:44.307Z,111.32
2022-12-19T13:56:15.296Z,109.85
2022-12-19T13:58:45.313Z,107.85
2022-12-19T14:01:20.729Z,102.78
2022-12-19T14:03:48.775Z,99.88
2022-12-19T14:06:19.993Z,105.50
2022-12-19T14:08:47.855Z,104.22
2022-12-19T14:12:29.677Z,108.55
2022-12-19T14:14:46.481Z,108.72
2022-12-19T14:17:14.191Z,110.60
2022-12-19T14:19:42.114Z,105.90
2022-12-19T14:22:25.831Z,112.78
2022-12-19T14:24:54.739Z,109.53
2022-12-19T14:28:21.386Z,106.65
2022-12-19T14:30:29.805Z,102.07
2022-12-19T14:33:45.142Z,101.40
2022-12-19T14:36:11.216Z,101.25
2022-12-19T14:39:27.078Z,103.15
2022-12-19T14:41:46.235Z,102.40
2022-12-19T14:51:51.833Z,97.07
2022-12-19T14:52:44.923Z,103.38
2022-12-19T14:54:10.840Z,96.35
2022-12-19T14:54:44.052Z,106.43
2022-12-19T14:56:13.044Z,96.28
2022-12-19T14:58:53.444Z,93.53
2022-12-19T15:01:23.364Z,97.95
2022-12-19T15:04:48.303Z,98.07
2022-12-19T15:07:08.582Z,90.00
2022-12-19T15:10:58.653Z,106.63
2022-12-19T15:14:46.750Z,101.85
2022-12-19T15:15:21.026Z,97.32
2022-12-19T15:17:52.232Z,100.78
2022-12-19T15:20:19.423Z,94.93
2022-12-19T15:22:46.449Z,97.15
2022-12-19T15:25:35.860Z,102.60
2022-12-19T15:28:02.061Z,96.35
2022-12-19T15:30:29.041Z,98.05
2022-12-19T15:32:56.028Z,94.15
2022-12-19T15:35:23.577Z,107.57
2022-12-19T15:37:50.580Z,101.32
2022-12-19T15:40:18.250Z,101.75
2022-12-19T15:42:45.437Z,101.97
2022-12-19T15:45:16.381Z,100.72
2022-12-19T15:47:43.447Z,105.68
2022-12-19T15:50:20.778Z,109.05
2022-12-19T15:52:47.792Z,106.20
2022-12-19T15:55:18.462Z,111.25
2022-12-19T15:57:47.275Z,105.97
2022-12-19T16:00:18.881Z,119.10
2022-12-19T16:05:33.315Z,123.55
2022-12-19T16:08:00.417Z,125.45
2022-12-19T16:10:27.425Z,123.75
2022-12-19T16:12:57.984Z,111.15
2022-12-19T16:17:52.825Z,123.15
2022-12-19T16:20:21.188Z,126.80
2022-12-19T16:22:48.193Z,118.13
2022-12-19T16:25:15.222Z,119.78
2022-12-19T16:27:42.294Z,125.60
2022-12-19T16:30:22.553Z,141.80
2022-12-19T16:32:49.691Z,122.88
2022-12-19T16:35:28.978Z,124.13
2022-12-19T16:38:04.586Z,121.07
2022-12-19T16:40:31.609Z,130.15
2022-12-19T16:43:11.461Z,131.88
2022-12-19T16:45:38.462Z,130.43
2022-12-19T16:48:11.701Z,131.88
2022-12-19T16:50:38.699Z,141.35
2022-12-19T16:53:05.676Z,132.88
2022-12-19T16:55:32.691Z,144.02
2022-12-19T16:57:59.718Z,143.40
2022-12-19T17:00:27.534Z,130.80
2022-12-19T17:03:03.557Z,132.80
2022-12-19T17:05:31.400Z,142.05
2022-12-19T17:07:58.446Z,140.30
2022-12-19T17:10:29.628Z,141.57
2022-12-19T17:12:56.609Z,141.00
2022-12-19T17:15:23.628Z,143.57
2022-12-19T17:17:50.767Z,150.27
2022-12-19T17:20:21.405Z,155.02
2022-12-19T17:22:48.616Z,151.80
2022-12-19T17:25:22.849Z,154.77
2022-12-19T17:27:49.978Z,146.23
2022-12-19T17:30:17.183Z,139.82
2022-12-19T17:32:44.268Z,151.13
2022-12-19T17:35:27.359Z,152.52
2022-12-19T17:37:55.322Z,156.13
2022-12-19T17:40:23.713Z,148.68
2022-12-19T17:42:50.761Z,152.25
2022-12-19T17:45:17.811Z,158.30
2022-12-19T17:47:45.197Z,149.95
2022-12-19T17:50:28.356Z,145.80
2022-12-19T17:52:55.823Z,143.95
2022-12-19T17:55:26.740Z,169.13
2022-12-19T17:57:53.922Z,145.50
2022-12-19T18:00:28.410Z,147.93
2022-12-19T18:02:57.453Z,147.65
2022-12-19T18:05:25.504Z,142.35
2022-12-19T18:07:52.697Z,139.32
2022-12-19T18:10:21.378Z,152.43
2022-12-19T18:12:48.451Z,142.23
2022-12-19T18:15:15.595Z,131.55
2022-12-19T18:17:42.722Z,139.90
2022-12-19T18:20:16.886Z,136.85
2022-12-19T18:22:43.908Z,145.70
2022-12-19T18:25:23.863Z,139.77
2022-12-19T18:27:51.436Z,134.15
2022-12-19T18:30:18.760Z,136.15
2022-12-19T18:32:46.172Z,133.48
2022-12-19T18:35:23.157Z,137.88
2022-12-19T18:37:50.461Z,136.35
2022-12-19T18:40:23.321Z,136.27
2022-12-19T18:42:53.150Z,137.77
2022-12-19T18:45:21.089Z,131.50
2022-12-19T18:47:51.592Z,125.43
2022-12-19T18:52:45.877Z,128.77
2022-12-19T18:55:15.280Z,128.77
2022-12-19T18:57:44.773Z,123.13
2022-12-19T19:00:13.093Z,128.15
2022-12-19T19:02:40.460Z,125.32
2022-12-19T19:05:10.449Z,127.35
2022-12-19T19:07:37.467Z,123.88
2022-12-19T19:10:09.890Z,131.15
2022-12-19T19:12:37.011Z,126.30
2022-12-19T19:15:05.536Z,130.63
2022-12-19T19:17:32.579Z,119.63
2022-12-19T19:19:59.752Z,125.47
2022-12-19T19:22:26.775Z,120.05
2022-12-19T19:24:53.881Z,127.32
2022-12-19T19:27:20.910Z,124.05
2022-12-19T19:29:47.981Z,120.72
2022-12-19T19:32:15.023Z,118.00
2022-12-19T19:34:42.088Z,113.53
2022-12-19T19:37:09.764Z,113.07
2022-12-19T19:39:37.111Z,113.95
2022-12-19T19:42:04.165Z,111.75
2022-12-19T19:44:32.222Z,110.78
2022-12-19T19:46:59.680Z,109.28
2022-12-19T19:49:26.875Z,107.38
2022-12-19T19:52:00.310Z,108.90
2022-12-19T19:54:29.448Z,107.43
2022-12-19T19:56:56.508Z,103.85
2022-12-19T19:59:23.545Z,104.65
2022-12-19T20:01:54.149Z,100.90
2022-12-19T20:04:21.544Z,105.63
2022-12-19T20:06:48.727Z,102.05
2022-12-19T20:09:15.777Z,98.40
2022-12-19T20:11:42.853Z,96.72
2022-12-19T20:14:09.901Z,105.20
2022-12-19T20:16:37.097Z,90.57
2022-12-19T20:19:04.245Z,99.35
2022-12-19T20:21:33.254Z,94.07
2022-12-19T20:24:00.341Z,92.20
2022-12-19T20:26:27.494Z,89.57
2022-12-19T20:28:54.513Z,94.78
2022-12-19T20:31:22.218Z,88.43
2022-12-19T20:33:50.412Z,83.72
2022-12-19T20:36:17.538Z,83.53
2022-12-19T20:38:44.678Z,83.00
2022-12-19T20:41:11.729Z,81.15
2022-12-19T20:43:38.893Z,76.68
2022-12-19T20:46:06.885Z,79.15
2022-12-19T20:48:34.089Z,80.88
2022-12-19T20:51:01.464Z,85.57
2022-12-19T20:53:28.709Z,77.00
2022-12-19T20:55:58.346Z,77.72
2022-12-19T20:58:28.903Z,69.38
2022-12-19T21:00:56.451Z,67.32
2022-12-19T21:03:28.508Z,75.93
2022-12-19T21:05:56.837Z,84.57
2022-12-19T21:08:24.084Z,79.40
2022-12-19T21:10:51.186Z,74.25
2022-12-19T21:13:18.276Z,86.95
2022-12-19T21:15:45.596Z,83.05
2022-12-19T21:18:12.708Z,85.95
2022-12-19T21:20:39.819Z,81.85
2022-12-19T21:23:06.927Z,74.75
2022-12-19T21:25:33.952Z,76.72
2022-12-19T21:28:00.977Z,77.25
2022-12-19T21:30:28.045Z,73.90
2022-12-19T21:32:55.556Z,80.32
2022-12-19T21:35:22.678Z,75.28
2022-12-19T21:37:52.600Z,74.47
2022-12-19T21:40:19.802Z,81.38
2022-12-19T21:42:47.022Z,78.60
2022-12-19T21:45:14.155Z,75.32
2022-12-19T21:47:42.092Z,75.38
2022-12-19T21:50:13.704Z,75.03
2022-12-19T21:52:40.783Z,71.97
2022-12-19T21:55:08.227Z,66.43
2022-12-19T21:57:39.034Z,70.05
2022-12-19T22:00:06.833Z,71.45
2022-12-19T22:02:33.970Z,69.53
2022-12-19T22:05:01.194Z,68.25
2022-12-19T22:07:28.217Z,76.13
2022-12-19T22:09:55.324Z,64.95
2022-12-19T22:12:22.438Z,69.25
2022-12-19T22:14:49.496Z,69.05
2022-12-19T22:17:16.556Z,64.63
2022-12-19T22:19:43.577Z,65.75
2022-12-19T22:22:10.603Z,68.57
2022-12-19T22:24:37.632Z,72.75
2022-12-19T22:27:04.970Z,65.85
2022-12-19T22:29:36.273Z,62.83
2022-12-19T22:32:03.995Z,63.83
2022-12-19T22:34:31.142Z,67.47
2022-12-19T22:36:58.276Z,68.55
2022-12-19T22:39:25.574Z,64.13
2022-12-19T22:41:52.647Z,65.63
2022-12-19T22:44:20.519Z,67.85
2022-12-19T22:46:47.610Z,61.40
2022-12-19T22:49:14.811Z,68.10
2022-12-19T22:51:41.933Z,66.55
2022-12-19T22:54:09.191Z,68.25
2022-12-19T22:56:36.433Z,62.95
2022-12-19T22:59:04.690Z,67.78
2022-12-19T23:01:33.356Z,70.78
2022-12-19T23:04:01.142Z,72.60
2022-12-19T23:06:28.692Z,67.78
2022-12-19T23:08:55.835Z,70.60
2022-12-19T23:11:24.433Z,70.90
2022-12-19T23:13:51.706Z,66.53
2022-12-19T23:16:19.000Z,69.82
2022-12-19T23:18:46.502Z,72.70
2022-12-19T23:21:14.839Z,73.53
2022-12-19T23:23:42.664Z,71.00
2022-12-19T23:26:15.546Z,77.50
2022-12-19T23:28:43.621Z,69.88
2022-12-19T23:31:12.007Z,71.05
2022-12-19T23:33:39.106Z,73.68
2022-12-19T23:36:06.331Z,66.65
2022-12-19T23:38:33.530Z,68.15
2022-12-19T23:41:03.921Z,70.22
2022-12-19T23:43:32.128Z,70.93
2022-12-19T23:45:59.320Z,72.95
2022-12-19T23:48:26.764Z,68.25
2022-12-19T23:51:00.593Z,70.07
2022-12-19T23:53:27.680Z,69.85
2022-12-19T23:55:54.782Z,66.80
2022-12-19T23:58:24.691Z,68.57
